Time;durP1;ratioP1;P1;durP2;ratioP2;P2;SDS_P1;SDS_P2;PMS_P1;PMS_P2;Temp;Humidity;BMP_temperature;BMP_pressure;BME280_temperature;BME280_humidity;BME280_pressure;Samples;Min_cycle;Max_cycle;Signal;HPM_P1;HPM_P2
2023/07/25 00:02:22;;;;;;;;;;;;;;;10.73;100.00;100852.38;5095971;28;19923;-73
2023/07/25 00:04:48;;;;;;;;;;;;;;;10.75;100.00;100845.94;5096153;28;19923;-73
2023/07/25 00:07:13;;;;;;;;;;;;;;;10.76;100.00;100846.78;5096148;28;20392;-72
2023/07/25 00:09:38;;;;;;;;;;;;;;;10.74;100.00;100846.91;5095338;28;19916;-73
2023/07/25 00:12:04;;;;;;;;;;;;;;;10.71;100.00;100855.19;5095972;28;19927;-74
2023/07/25 00:14:29;;;;;;;;;;;;;;;10.70;100.00;100856.19;5096077;28;19920;-74
2023/07/25 00:16:54;;;;;;;;;;;;;;;10.70;100.00;100847.34;5096082;28;19920;-76
2023/07/25 00:19:20;;;;;;;;;;;;;;;10.68;100.00;100842.16;5097369;28;19931;-77
2023/07/25 00:21:45;;;;;;;;;;;;;;;10.67;100.00;100842.31;5096272;28;20032;-77
2023/07/25 00:24:10;;;;;;;;;;;;;;;10.66;100.00;100841.47;5096725;28;19927;-77
2023/07/25 00:26:36;;;;;;;;;;;;;;;10.64;100.00;100840.75;5097107;28;19920;-79
2023/07/25 00:29:01;;;;;;;;;;;;;;;10.64;100.00;100837.25;5079400;28;20017;-78
2023/07/25 00:31:26;;;;;;;;;;;;;;;10.61;100.00;100830.38;5098459;28;19942;-77
2023/07/25 00:33:51;;;;;;;;;;;;;;;10.60;100.00;100831.38;5082356;28;19942;-78
2023/07/25 00:36:17;;;;;;;;;;;;;;;10.57;100.00;100837.81;5096261;28;19946;-77
2023/07/25 00:38:42;;;;;;;;;;;;;;;10.55;100.00;100825.63;5096548;28;20368;-77
2023/07/25 00:41:07;;;;;;;;;;;;;;;10.51;100.00;100827.75;5096521;28;20364;-77
2023/07/25 00:43:32;;;;;;;;;;;;;;;10.46;100.00;100829.13;5096047;28;20392;-77
2023/07/25 00:45:57;;;;;;;;;;;;;;;10.44;100.00;100833.75;5096173;28;19971;-77
2023/07/25 00:48:23;;;;;;;;;;;;;;;10.42;100.00;100836.56;5096758;28;20241;-77
2023/07/25 00:50:48;;;;;;;;;;;;;;;10.36;100.00;100826.44;5077844;28;19924;-76
2023/07/25 00:53:14;;;;;;;;;;;;;;;10.31;100.00;100826.00;5096140;28;19927;-77
2023/07/25 00:55:39;;;;;;;;;;;;;;;10.27;100.00;100829.91;5096006;28;19916;-77
2023/07/25 00:58:05;;;;;;;;;;;;;;;10.22;100.00;100825.81;5095987;28;19920;-77
2023/07/25 01:00:30;;;;;;;;;;;;;;;10.19;100.00;100819.97;5095855;28;19920;-78
2023/07/25 01:02:55;;;;;;;;;;;;;;;10.14;100.00;100833.66;5096387;28;20007;-77
2023/07/25 01:05:22;;;;;;;;;;;;;;;10.09;100.00;100827.94;5095868;28;19923;-77
2023/07/25 01:07:47;;;;;;;;;;;;;;;10.01;100.00;100828.59;5077569;28;19997;-77
2023/07/25 01:10:14;;;;;;;;;;;;;;;9.98;100.00;100823.53;5095704;28;19921;-77
2023/07/25 01:12:39;;;;;;;;;;;;;;;9.96;100.00;100822.84;5095770;28;19920;-77
2023/07/25 01:15:04;;;;;;;;;;;;;;;9.95;100.00;100825.63;5096056;28;19965;-77
2023/07/25 01:17:30;;;;;;;;;;;;;;;9.91;100.00;100827.72;5095871;28;19924;-77
2023/07/25 01:19:55;;;;;;;;;;;;;;;9.88;100.00;100820.88;5077442;28;19927;-77
2023/07/25 01:22:22;;;;;;;;;;;;;;;9.88;100.00;100820.88;5095563;28;19927;-77
2023/07/25 01:24:47;;;;;;;;;;;;;;;9.92;100.00;100826.75;5095946;28;20424;-77
2023/07/25 01:27:13;;;;;;;;;;;;;;;9.96;100.00;100822.03;5095211;28;19960;-77
2023/07/25 01:29:38;;;;;;;;;;;;;;;9.98;100.00;100826.19;5095602;28;19943;-77
2023/07/25 01:32:04;;;;;;;;;;;;;;;10.01;100.00;100820.59;5095826;28;19996;-77
2023/07/25 01:34:29;;;;;;;;;;;;;;;10.05;100.00;100821.19;5095779;28;20158;-78
2023/07/25 01:36:54;;;;;;;;;;;;;;;10.08;100.00;100820.91;5095640;28;19916;-77
2023/07/25 01:39:20;;;;;;;;;;;;;;;10.11;100.00;100812.66;5095142;28;20302;-77
2023/07/25 01:41:45;;;;;;;;;;;;;;;10.15;100.00;100815.88;5095169;28;20421;-77
2023/07/25 01:44:10;;;;;;;;;;;;;;;10.16;100.00;100813.09;5095202;28;20417;-77
2023/07/25 01:46:36;;;;;;;;;;;;;;;10.20;100.00;100811.00;5095082;28;20256;-77
2023/07/25 01:49:01;;;;;;;;;;;;;;;10.22;100.00;100812.53;5095377;28;19923;-77
2023/07/25 01:51:26;;;;;;;;;;;;;;;10.32;100.00;100806.41;5095466;28;19928;-77
2023/07/25 01:53:53;;;;;;;;;;;;;;;10.42;100.00;100812.63;5095146;28;19923;-77
2023/07/25 01:56:19;;;;;;;;;;;;;;;10.53;100.00;100812.47;5077438;28;20280;-77
2023/07/25 01:58:44;;;;;;;;;;;;;;;10.66;100.00;100809.53;5094848;28;19920;-77
2023/07/25 02:01:09;;;;;;;;;;;;;;;10.79;100.00;100811.91;5094717;28;19924;-77
2023/07/25 02:03:34;;;;;;;;;;;;;;;10.92;100.00;100815.09;5094350;28;20501;-77
2023/07/25 02:06:00;;;;;;;;;;;;;;;11.03;100.00;100813.28;5095002;28;20061;-77
2023/07/25 02:08:25;;;;;;;;;;;;;;;11.11;100.00;100813.41;5076548;28;20017;-77
2023/07/25 02:10:50;;;;;;;;;;;;;;;11.18;100.00;100806.53;5094529;28;20360;-77
2023/07/25 02:13:15;;;;;;;;;;;;;;;11.27;100.00;100812.81;5094974;28;20391;-77
2023/07/25 02:15:41;;;;;;;;;;;;;;;11.34;100.00;100810.41;5094774;28;19920;-78
2023/07/25 02:18:06;;;;;;;;;;;;;;;11.40;100.00;100813.31;5094348;28;19927;-79
2023/07/25 02:20:31;;;;;;;;;;;;;;;11.45;100.00;100799.59;5094027;28;19920;-79
2023/07/25 02:22:57;;;;;;;;;;;;;;;11.47;100.00;100797.63;5094393;28;20368;-79
2023/07/25 02:25:22;;;;;;;;;;;;;;;11.46;100.00;100803.91;5094137;28;19922;-79
2023/07/25 02:27:47;;;;;;;;;;;;;;;11.46;100.00;100799.44;5094318;28;19966;-80
2023/07/25 02:30:13;;;;;;;;;;;;;;;11.50;100.00;100805.31;5094214;28;19920;-79
2023/07/25 02:32:38;;;;;;;;;;;;;;;11.52;100.00;100808.66;5094593;28;19951;-80
2023/07/25 02:35:03;;;;;;;;;;;;;;;11.55;100.00;100807.53;5094150;28;19920;-81
2023/07/25 02:37:28;;;;;;;;;;;;;;;11.58;100.00;100815.25;5094229;28;19927;-80
2023/07/25 02:39:54;;;;;;;;;;;;;;;11.59;100.00;100804.44;5094183;28;19920;-80
2023/07/25 02:42:19;;;;;;;;;;;;;;;11.61;100.00;100798.94;5094524;28;20076;-80
2023/07/25 02:44:44;;;;;;;;;;;;;;;11.64;100.00;100799.53;5093861;28;19950;-80
2023/07/25 02:47:09;;;;;;;;;;;;;;;11.64;100.00;100796.84;5094063;28;19971;-81
2023/07/25 02:49:34;;;;;;;;;;;;;;;11.67;100.00;100802.88;5093696;28;19970;-80
2023/07/25 02:52:00;;;;;;;;;;;;;;;11.70;100.00;100808.72;5075694;28;19967;-80
2023/07/25 02:54:25;;;;;;;;;;;;;;;11.72;100.00;100811.25;5093826;28;19920;-80
2023/07/25 02:56:50;;;;;;;;;;;;;;;11.71;100.00;100814.91;5094173;28;19920;-79
2023/07/25 02:59:15;;;;;;;;;;;;;;;11.69;100.00;100812.41;5094000;28;19920;-80
2023/07/25 03:01:40;;;;;;;;;;;;;;;11.68;100.00;100813.38;5093851;28;19916;-80
2023/07/25 03:04:06;;;;;;;;;;;;;;;11.68;100.00;100809.88;5093736;28;19922;-80
2023/07/25 03:06:31;;;;;;;;;;;;;;;11.67;100.00;100810.84;5093826;28;19930;-79
2023/07/25 03:08:56;;;;;;;;;;;;;;;11.68;100.00;100817.88;5093914;28;20049;-79
2023/07/25 03:11:21;;;;;;;;;;;;;;;11.69;100.00;100808.88;5093615;28;20011;-79
2023/07/25 03:13:47;;;;;;;;;;;;;;;11.71;100.00;100807.75;5075576;28;20296;-79
2023/07/25 03:16:12;;;;;;;;;;;;;;;11.74;100.00;100803.97;5093731;28;19978;-78
2023/07/25 03:18:38;;;;;;;;;;;;;;;11.77;100.00;100801.00;5093511;28;19922;-78
2023/07/25 03:21:03;;;;;;;;;;;;;;;11.80;100.00;100800.69;5093726;28;19916;-78
2023/07/25 03:23:28;;;;;;;;;;;;;;;11.82;100.00;100798.72;5094344;28;19973;-78
2023/07/25 03:25:53;;;;;;;;;;;;;;;11.82;100.00;100804.91;5093614;28;19916;-78
2023/07/25 03:28:19;;;;;;;;;;;;;;;11.82;100.00;100802.22;5093534;28;19920;-78
2023/07/25 03:30:44;;;;;;;;;;;;;;;11.82;100.00;100806.72;5094225;28;19916;-79
2023/07/25 03:33:09;;;;;;;;;;;;;;;11.81;100.00;100808.53;5096382;28;20014;-78
2023/07/25 03:35:34;;;;;;;;;;;;;;;11.83;100.00;100805.72;5079233;28;19981;-78
2023/07/25 03:38:00;;;;;;;;;;;;;;;11.83;100.00;100813.72;5098275;28;19924;-78
2023/07/25 03:40:25;;;;;;;;;;;;;;;11.85;100.00;100811.75;5097512;28;19950;-78
2023/07/25 03:42:50;;;;;;;;;;;;;;;11.87;100.00;100809.78;5097376;28;19920;-78
2023/07/25 03:45:15;;;;;;;;;;;;;;;11.88;100.00;100807.94;5097533;28;20018;-78
2023/07/25 03:47:40;;;;;;;;;;;;;;;11.89;100.00;100807.81;5097381;28;19927;-79
2023/07/25 03:50:06;;;;;;;;;;;;;;;11.91;100.00;100805.84;5097016;28;20363;-78
2023/07/25 03:52:31;;;;;;;;;;;;;;;11.92;100.00;100809.34;5097817;28;20414;-78
2023/07/25 03:54:56;;;;;;;;;;;;;;;11.93;100.00;100811.06;5096900;28;20300;-78
2023/07/25 03:57:22;;;;;;;;;;;;;;;11.94;100.00;100816.25;5079380;28;19916;-78
2023/07/25 03:59:47;;;;;;;;;;;;;;;11.94;100.00;100818.91;5097275;28;19920;-77
2023/07/25 04:02:12;;;;;;;;;;;;;;;11.94;100.00;100813.56;5097663;28;19920;-78
2023/07/25 04:04:37;;;;;;;;;;;;;;;11.98;100.00;100812.25;5097216;28;19995;-78
2023/07/25 04:07:03;;;;;;;;;;;;;;;12.02;100.00;100818.16;5079145;28;19920;-80
2023/07/25 04:09:28;;;;;;;;;;;;;;;12.04;100.00;100820.69;5096377;28;19923;-77
2023/07/25 04:11:53;;;;;;;;;;;;;;;12.09;100.00;100810.38;5097136;28;20004;-78
2023/07/25 04:14:18;;;;;;;;;;;;;;;12.13;100.00;100817.09;5096608;28;19963;-78
2023/07/25 04:16:43;;;;;;;;;;;;;;;12.16;100.00;100822.97;5096378;28;19948;-78
2023/07/25 04:19:09;;;;;;;;;;;;;;;12.21;100.00;100817.22;5096532;28;19974;-78
2023/07/25 04:21:34;;;;;;;;;;;;;;;12.23;100.00;100822.41;5096342;28;19916;-80
2023/07/25 04:23:59;;;;;;;;;;;;;;;12.26;100.00;100819.44;5096459;28;19924;-80
2023/07/25 04:26:24;;;;;;;;;;;;;;;12.27;100.00;100816.59;5096219;28;19927;-78
2023/07/25 04:28:50;;;;;;;;;;;;;;;12.31;100.00;100823.28;5096207;28;19920;-79
2023/07/25 04:31:15;;;;;;;;;;;;;;;12.35;100.00;100821.19;5096342;28;19927;-80
2023/07/25 04:33:41;;;;;;;;;;;;;;;12.39;100.00;100824.38;5096227;28;19938;-79
2023/07/25 04:36:06;;;;;;;;;;;;;;;12.43;100.00;100823.91;5096354;28;19927;-79
2023/07/25 04:38:31;;;;;;;;;;;;;;;12.48;100.00;100831.47;5096706;28;19984;-78
2023/07/25 04:40:57;;;;;;;;;;;;;;;12.55;100.00;100821.88;5096273;28;19916;-78
2023/07/25 04:43:22;;;;;;;;;;;;;;;12.64;100.00;100828.13;5096173;28;19963;-79
2023/07/25 04:45:47;;;;;;;;;;;;;;;12.69;100.00;100829.34;5096402;28;20394;-78
2023/07/25 04:48:12;;;;;;;;;;;;;;;12.77;100.00;100830.41;5096107;28;19926;-77
2023/07/25 04:50:38;;;;;;;;;;;;;;;12.83;100.00;100837.81;5095525;28;19924;-78
2023/07/25 04:53:03;;;;;;;;;;;;;;;12.87;100.00;100826.66;5096425;28;19973;-77
2023/07/25 04:55:28;;;;;;;;;;;;;;;12.91;100.00;100834.38;5095735;28;19927;-77
2023/07/25 04:57:54;;;;;;;;;;;;;;;12.94;100.00;100828.72;5096100;28;20069;-78
2023/07/25 05:00:19;;;;;;;;;;;;;;;12.96;100.00;100829.41;5095552;28;20471;-77
2023/07/25 05:02:45;;;;;;;;;;;;;;;12.98;100.00;100830.09;5096021;28;19921;-77
2023/07/25 05:05:10;;;;;;;;;;;;;;;13.00;100.00;100834.28;5095741;28;19931;-76
2023/07/25 05:07:35;;;;;;;;;;;;;;;12.99;100.00;100837.13;5095556;28;19916;-76
2023/07/25 05:10:00;;;;;;;;;;;;;;;12.97;100.00;100839.94;5095882;28;19973;-78
2023/07/25 05:12:25;;;;;;;;;;;;;;;12.95;100.00;100844.56;5095571;28;19916;-78
2023/07/25 05:14:51;;;;;;;;;;;;;;;12.95;100.00;100841.06;5077106;28;19927;-78
2023/07/25 05:17:16;;;;;;;;;;;;;;;12.91;100.00;100840.53;5095600;28;19920;-78
2023/07/25 05:19:41;;;;;;;;;;;;;;;12.88;100.00;100843.50;5095556;28;19920;-79
2023/07/25 05:22:07;;;;;;;;;;;;;;;12.86;100.00;100845.50;5095612;28;19939;-78
2023/07/25 05:24:32;;;;;;;;;;;;;;;12.83;100.00;100845.81;5095741;28;19964;-78
2023/07/25 05:26:57;;;;;;;;;;;;;;;12.83;100.00;100845.81;5095680;28;19927;-78
2023/07/25 05:29:22;;;;;;;;;;;;;;;12.81;100.00;100840.63;5099791;28;19920;-77
2023/07/25 05:31:47;;;;;;;;;;;;;;;12.80;100.00;100843.47;5096093;28;19920;-78
2023/07/25 05:34:13;;;;;;;;;;;;;;;12.79;100.00;100837.25;5077114;28;19920;-79
2023/07/25 05:36:38;;;;;;;;;;;;;;;12.79;100.00;100837.25;5095364;28;19921;-79
2023/07/25 05:39:03;;;;;;;;;;;;;;;12.81;100.00;100845.97;5095569;28;20026;-79
2023/07/25 05:41:28;;;;;;;;;;;;;;;12.85;100.00;100843.81;5095162;28;19963;-78
2023/07/25 05:43:54;;;;;;;;;;;;;;;12.86;100.00;100845.50;5094886;28;19920;-79
2023/07/25 05:46:19;;;;;;;;;;;;;;;12.86;100.00;100837.50;5094975;28;19920;-77
2023/07/25 05:48:44;;;;;;;;;;;;;;;12.86;100.00;100840.16;5094605;28;19916;-77
2023/07/25 05:51:09;;;;;;;;;;;;;;;12.86;100.00;100841.00;5094804;28;19928;-77
2023/07/25 05:53:35;;;;;;;;;;;;;;;12.89;100.00;100845.19;5094737;28;19920;-76
2023/07/25 05:56:00;;;;;;;;;;;;;;;12.92;100.00;100841.38;5093651;28;19965;-76
2023/07/25 05:58:25;;;;;;;;;;;;;;;12.95;100.00;100849.09;5076302;28;19920;-79
2023/07/25 06:00:51;;;;;;;;;;;;;;;13.03;100.00;100849.13;5094354;28;20315;-77
2023/07/25 06:03:16;;;;;;;;;;;;;;;13.13;100.00;100855.22;5094580;28;19916;-77
2023/07/25 06:05:42;;;;;;;;;;;;;;;13.25;100.00;100850.47;5094856;28;19920;-79
2023/07/25 06:08:08;;;;;;;;;;;;;;;13.36;100.00;100844.06;5094211;28;19916;-77
2023/07/25 06:10:34;;;;;;;;;;;;;;;13.49;100.00;100849.00;5093998;28;19916;-77
2023/07/25 06:13:00;;;;;;;;;;;;;;;13.62;100.00;100844.06;5093989;28;20344;-77
2023/07/25 06:15:28;;;;;;;;;;;;;;;13.78;100.00;100845.13;5093815;28;19974;-78
2023/07/25 06:17:53;;;;;;;;;;;;;;;13.93;100.00;100846.22;5093899;28;20032;-77
2023/07/25 06:20:18;;;;;;;;;;;;;;;14.10;100.00;100853.28;5093676;28;20329;-77
2023/07/25 06:22:43;;;;;;;;;;;;;;;14.30;100.00;100850.34;5093620;28;19924;-77
2023/07/25 06:25:09;;;;;;;;;;;;;;;14.50;100.00;100858.09;5094129;28;19926;-78
2023/07/25 06:27:34;;;;;;;;;;;;;;;14.66;100.00;100850.13;5094129;28;19920;-76
2023/07/25 06:30:00;;;;;;;;;;;;;;;14.87;100.00;100862.19;5093442;28;19966;-79
2023/07/25 06:32:26;;;;;;;;;;;;;;;15.07;100.00;100847.44;5093806;28;19916;-78
2023/07/25 06:34:51;;;;;;;;;;;;;;;15.31;100.00;100857.31;5094305;28;19928;-78
2023/07/25 06:37:17;;;;;;;;;;;;;;;15.59;100.00;100848.88;5076136;28;19994;-76
2023/07/25 06:39:42;;;;;;;;;;;;;;;15.80;100.00;100853.69;5075509;28;19920;-77
2023/07/25 06:42:07;;;;;;;;;;;;;;;16.04;100.00;100854.63;5094259;28;19920;-78
2023/07/25 06:44:32;;;;;;;;;;;;;;;16.23;100.00;100848.00;5075701;28;19928;-75
2023/07/25 06:46:57;;;;;;;;;;;;;;;16.47;100.00;100846.19;5093922;28;19920;-76
2023/07/25 06:49:23;;;;;;;;;;;;;;;16.63;100.00;100850.59;5093509;28;19979;-75
2023/07/25 06:51:48;;;;;;;;;;;;;;;16.70;100.00;100856.91;5093199;28;19924;-76
2023/07/25 06:54:14;;;;;;;;;;;;;;;16.68;100.00;100861.66;5093567;28;19923;-76
2023/07/25 06:56:39;;;;;;;;;;;;;;;16.69;100.00;100855.25;5093501;28;19922;-79
2023/07/25 06:59:04;;;;;;;;;;;;;;;16.58;100.00;100856.50;5093566;28;19924;-76
2023/07/25 07:01:29;;;;;;;;;;;;;;;16.39;100.00;100863.16;5093647;28;19920;-76
2023/07/25 07:03:55;;;;;;;;;;;;;;;16.19;100.00;100862.78;5093367;28;19966;-78
2023/07/25 07:06:20;;;;;;;;;;;;;;;16.03;100.00;100866.34;5094452;28;19979;-75
2023/07/25 07:08:45;;;;;;;;;;;;;;;15.96;100.00;100868.91;5097991;28;20019;-76
2023/07/25 07:11:11;;;;;;;;;;;;;;;16.04;100.00;100871.53;5097564;28;19934;-76
2023/07/25 07:13:36;;;;;;;;;;;;;;;16.05;100.00;100864.34;5098249;28;19988;-75
2023/07/25 07:16:01;;;;;;;;;;;;;;;16.02;100.00;100872.75;5097758;28;20030;-77
2023/07/25 07:18:26;;;;;;;;;;;;;;;15.92;100.00;100870.25;5079701;28;19921;-78
2023/07/25 07:20:52;;;;;;;;;;;;;;;15.85;100.00;100877.31;5080061;28;19927;-77
2023/07/25 07:23:17;;;;;;;;;;;;;;;15.83;100.00;100880.19;5098065;28;19920;-78
2023/07/25 07:25:43;;;;;;;;;;;;;;;15.80;100.00;100877.84;5098058;28;20079;-78
2023/07/25 07:28:08;;;;;;;;;;;;;;;15.82;100.00;100875.84;5097753;28;19916;-77
2023/07/25 07:30:35;;;;;;;;;;;;;;;15.92;100.00;100870.25;5097493;28;20283;-78
2023/07/25 07:33:00;;;;;;;;;;;;;;;16.06;100.00;100867.88;5098517;28;20085;-77
2023/07/25 07:35:25;;;;;;;;;;;;;;;16.32;100.00;100867.59;5097932;28;19974;-76
2023/07/25 07:37:51;;;;;;;;;;;;;;;16.70;100.00;100859.59;5097603;28;19920;-77
2023/07/25 07:40:16;;;;;;;;;;;;;;;17.03;100.00;100867.44;5097663;28;20337;-77
2023/07/25 07:42:41;;;;;;;;;;;;;;;17.17;100.00;100869.34;5097903;28;20382;-78
2023/07/25 07:45:07;;;;;;;;;;;;;;;16.98;100.00;100867.16;5098586;28;20364;-77
2023/07/25 07:47:32;;;;;;;;;;;;;;;16.53;100.00;100875.84;5097389;28;19920;-78
2023/07/25 07:49:58;;;;;;;;;;;;;;;16.36;100.00;100868.88;5096838;28;19916;-77
2023/07/25 07:52:23;;;;;;;;;;;;;;;16.46;100.00;100874.03;5078747;28;19916;-77
2023/07/25 07:54:49;;;;;;;;;;;;;;;16.69;100.00;100877.59;5096794;28;19928;-77
2023/07/25 07:57:14;;;;;;;;;;;;;;;16.87;100.00;100880.00;5078894;28;20283;-75
2023/07/25 07:59:42;;;;;;;;;;;;;;;16.85;100.00;100878.47;5096668;28;20011;-76
2023/07/25 08:02:07;;;;;;;;;;;;;;;16.68;100.00;100892.03;5097240;28;19917;-77
2023/07/25 08:04:32;;;;;;;;;;;;;;;16.69;100.00;100887.47;5078719;28;19942;-77
2023/07/25 08:06:57;;;;;;;;;;;;;;;16.90;100.00;100887.72;5096958;28;19923;-78
2023/07/25 08:09:23;;;;;;;;;;;;;;;17.16;100.00;100889.19;5097311;28;19973;-76
2023/07/25 08:11:48;;;;;;;;;;;;;;;17.42;100.00;100886.09;5078175;28;19962;-76
2023/07/25 08:14:13;;;;;;;;;;;;;;;17.77;100.00;100883.69;5097229;28;19928;-76
2023/07/25 08:16:38;;;;;;;;;;;;;;;18.02;100.00;100877.22;5096529;28;19916;-77
2023/07/25 08:19:04;;;;;;;;;;;;;;;18.40;100.00;100885.16;5095907;28;19962;-77
2023/07/25 08:21:29;;;;;;;;;;;;;;;18.75;100.00;100878.09;5096522;28;19963;-76
2023/07/25 08:23:54;;;;;;;;;;;;;;;19.17;100.00;100889.91;5096612;28;20283;-77
2023/07/25 08:26:19;;;;;;;;;;;;;;;19.43;95.55;100888.44;5096427;28;20296;-77
2023/07/25 08:28:45;;;;;;;;;;;;;;;19.15;92.77;100899.19;5078166;28;19928;-77
2023/07/25 08:31:10;;;;;;;;;;;;;;;18.54;98.27;100892.38;5096126;28;19932;-76
2023/07/25 08:33:36;;;;;;;;;;;;;;;18.15;100.00;100901.63;5096284;28;19927;-76
2023/07/25 08:36:01;;;;;;;;;;;;;;;17.85;100.00;100906.16;5096582;28;19920;-76
2023/07/25 08:38:26;;;;;;;;;;;;;;;17.54;100.00;100916.06;5096295;28;20288;-76
2023/07/25 08:41:12;;;;;;;;;;;;;;;17.37;100.00;100911.84;5095850;28;19939;-77
2023/07/25 08:43:39;;;;;;;;;;;;;;;17.42;100.00;100909.44;5096726;28;19923;-76
2023/07/25 08:46:08;;;;;;;;;;;;;;;17.86;100.00;100919.44;5077960;28;19916;-76
2023/07/25 08:48:37;;;;;;;;;;;;;;;18.38;100.00;100914.97;5096519;28;19920;-77
2023/07/25 08:51:05;;;;;;;;;;;;;;;18.58;93.47;100911.69;5077524;28;19942;-75
2023/07/25 08:53:31;;;;;;;;;;;;;;;18.56;96.73;100919.94;5095941;28;19926;-76
2023/07/25 08:55:58;;;;;;;;;;;;;;;18.61;93.40;100933.66;5096231;28;20006;-75
2023/07/25 08:58:24;;;;;;;;;;;;;;;18.73;92.59;100923.22;5095603;28;19969;-78
2023/07/25 09:00:50;;;;;;;;;;;;;;;19.09;91.82;100919.69;5096565;28;19973;-78
2023/07/25 09:03:15;;;;;;;;;;;;;;;19.25;85.72;100926.66;5096008;28;20326;-77
2023/07/25 09:05:41;;;;;;;;;;;;;;;19.10;80.65;100932.16;5095941;28;20337;-77
2023/07/25 09:08:06;;;;;;;;;;;;;;;19.00;76.97;100940.56;5096203;28;20272;-76
2023/07/25 09:10:32;;;;;;;;;;;;;;;19.16;79.10;100939.47;5095576;28;19917;-76
2023/07/25 09:12:57;;;;;;;;;;;;;;;19.63;79.80;100934.47;5095211;28;19916;-75
2023/07/25 09:15:22;;;;;;;;;;;;;;;20.00;73.53;100940.53;5095793;28;19920;-75
2023/07/25 09:17:49;;;;;;;;;;;;;;;19.78;74.18;100947.88;5095262;28;19923;-76
2023/07/25 09:20:15;;;;;;;;;;;;;;;19.43;75.43;100950.47;5095366;28;20073;-75
2023/07/25 09:22:45;;;;;;;;;;;;;;;18.84;79.77;100956.97;5095798;28;20378;-74
2023/07/25 09:25:13;;;;;;;;;;;;;;;18.57;90.20;100955.78;5095591;28;19920;-75
2023/07/25 09:27:38;;;;;;;;;;;;;;;18.38;94.43;100954.56;5095155;28;19916;-75
2023/07/25 09:30:09;;;;;;;;;;;;;;;18.38;93.14;100962.63;5093713;28;19920;-75
2023/07/25 09:32:36;;;;;;;;;;;;;;;18.33;97.70;100972.09;5095817;28;19916;-76
2023/07/25 09:35:05;;;;;;;;;;;;;;;18.43;94.39;100973.66;5095421;28;20376;-75
2023/07/25 09:37:31;;;;;;;;;;;;;;;18.54;96.35;100972.34;5095376;28;19920;-76
2023/07/25 09:39:56;;;;;;;;;;;;;;;18.68;88.24;100974.19;5077241;28;19989;-75
2023/07/25 09:42:22;;;;;;;;;;;;;;;18.81;95.39;100984.25;5095820;28;19923;-79
2023/07/25 09:44:50;;;;;;;;;;;;;;;18.94;95.34;100979.06;5095471;28;20338;-79
2023/07/25 09:47:26;;;;;;;;;;;;;;;19.03;91.48;100987.84;5076716;28;20306;-74
2023/07/25 09:49:52;;;;;;;;;;;;;;;19.11;88.31;100986.91;5094174;28;19990;-75
2023/07/25 09:52:17;;;;;;;;;;;;;;;19.09;81.53;100986.25;5094626;28;20427;-75
2023/07/25 09:54:43;;;;;;;;;;;;;;;19.08;87.83;100992.69;5094751;28;19917;-74
2023/07/25 09:57:08;;;;;;;;;;;;;;;18.99;85.49;100990.13;5094682;28;19966;-75
2023/07/25 09:59:34;;;;;;;;;;;;;;;19.60;85.67;100977.19;5094777;28;20334;-75
2023/07/25 10:02:00;;;;;;;;;;;;;;;20.02;75.79;100989.78;5094976;28;19920;-75
2023/07/25 10:04:25;;;;;;;;;;;;;;;19.78;82.88;100996.47;5076390;28;19922;-75
2023/07/25 10:06:51;;;;;;;;;;;;;;;19.34;78.22;100986.72;5094524;28;19920;-75
2023/07/25 10:09:17;;;;;;;;;;;;;;;19.61;76.62;101001.28;5094664;28;19920;-74
2023/07/25 10:11:43;;;;;;;;;;;;;;;20.05;75.70;100988.56;5094329;28;20010;-76
2023/07/25 10:14:08;;;;;;;;;;;;;;;20.04;73.29;101000.38;5094387;28;20379;-76
2023/07/25 10:16:35;;;;;;;;;;;;;;;19.73;75.23;100994.34;5094384;28;19916;-74
2023/07/25 10:19:01;;;;;;;;;;;;;;;19.53;78.82;100999.56;5094563;28;19920;-75
2023/07/25 10:21:27;;;;;;;;;;;;;;;19.74;76.10;100995.97;5094286;28;19920;-75
2023/07/25 10:23:55;;;;;;;;;;;;;;;20.46;72.00;101003.13;5094203;28;19927;-75
2023/07/25 10:26:20;;;;;;;;;;;;;;;21.28;65.28;100993.19;5094455;28;19942;-76
2023/07/25 10:28:45;;;;;;;;;;;;;;;21.29;69.24;100997.59;5094008;28;19925;-75
2023/07/25 10:31:23;;;;;;;;;;;;;;;21.87;60.00;100994.28;5094062;28;19923;-75
2023/07/25 10:33:58;;;;;;;;;;;;;;;22.69;55.57;100997.41;5094018;28;19917;-76
2023/07/25 10:36:24;;;;;;;;;;;;;;;23.23;55.75;100983.56;5094055;28;19916;-77
2023/07/25 10:38:50;;;;;;;;;;;;;;;23.67;52.90;100995.31;5093996;28;19916;-77
2023/07/25 10:41:19;;;;;;;;;;;;;;;24.13;52.50;100998.69;5093943;28;19916;-77
2023/07/25 10:43:44;;;;;;;;;;;;;;;23.07;52.00;100995.75;5093760;28;19920;-74
2023/07/25 10:46:12;;;;;;;;;;;;;;;21.96;56.02;101011.13;5093625;28;20292;-76
2023/07/25 10:48:43;;;;;;;;;;;;;;;21.11;59.07;101007.13;5093500;28;20292;-76
2023/07/25 10:51:09;;;;;;;;;;;;;;;21.28;67.62;101009.44;5093764;28;19943;-76
2023/07/25 10:53:36;;;;;;;;;;;;;;;21.86;61.57;101002.63;5092780;28;20639;-75
2023/07/25 10:56:04;;;;;;;;;;;;;;;21.52;61.90;101013.44;5093520;28;19924;-75
2023/07/25 10:58:33;;;;;;;;;;;;;;;20.69;64.30;101013.63;5094017;28;19922;-76
2023/07/25 11:00:58;;;;;;;;;;;;;;;21.14;63.56;101014.81;5093557;28;20372;-75
2023/07/25 11:03:34;;;;;;;;;;;;;;;21.31;59.27;101012.56;5093846;28;19974;-77
2023/07/25 11:06:05;;;;;;;;;;;;;;;20.64;65.34;101007.97;5093590;28;20384;-80
2023/07/25 11:08:31;;;;;;;;;;;;;;;20.31;65.66;101016.75;5095389;28;20002;-81
2023/07/25 11:11:14;;;;;;;;;;;;;;;21.06;63.32;101019.59;5094763;28;20026;-81
2023/07/25 11:13:41;;;;;;;;;;;;;;;21.45;62.10;101016.13;5104354;28;20344;-84
2023/07/25 11:16:10;;;;;;;;;;;;;;;21.92;60.04;101012.63;5098220;28;19912;-84
2023/07/25 11:18:37;;;;;;;;;;;;;;;22.39;56.58;101009.81;5094611;28;19963;-82
2023/07/25 11:21:02;;;;;;;;;;;;;;;21.70;57.71;101023.66;5094154;28;19916;-83
2023/07/25 11:23:28;;;;;;;;;;;;;;;21.08;58.94;101012.94;5075526;28;20364;-86
2023/07/25 11:25:57;;;;;;;;;;;;;;;20.73;56.70;101018.44;5094131;28;19916;-85
2023/07/25 11:28:22;;;;;;;;;;;;;;;21.74;54.97;101024.09;5095275;28;19942;-82
2023/07/25 11:30:47;;;;;;;;;;;;;;;22.80;51.55;101022.19;5095449;28;19916;-87
2023/07/25 11:33:13;;;;;;;;;;;;;;;23.04;47.99;101023.31;5096208;28;20320;-85
2023/07/25 11:35:38;;;;;;;;;;;;;;;23.20;50.65;101017.41;5075985;28;19916;-86
2023/07/25 11:38:03;;;;;;;;;;;;;;;23.48;50.38;101018.84;5093768;28;20224;-82
2023/07/25 11:40:29;;;;;;;;;;;;;;;23.40;51.72;101021.84;5096906;28;19969;-83
2023/07/25 11:42:56;;;;;;;;;;;;;;;24.22;50.74;101021.78;5096137;28;19917;-81
2023/07/25 11:45:22;;;;;;;;;;;;;;;25.12;50.03;101027.59;5094448;28;19928;-82
2023/07/25 11:47:48;;;;;;;;;;;;;;;25.59;47.42;101029.63;5093894;28;19927;-80
2023/07/25 11:50:14;;;;;;;;;;;;;;;25.69;44.33;101030.75;5093260;28;19917;-84
2023/07/25 11:52:41;;;;;;;;;;;;;;;25.96;42.87;101034.88;5094105;28;19926;-81
2023/07/25 11:55:07;;;;;;;;;;;;;;;25.77;43.83;101020.56;5099439;28;19956;-86
2023/07/25 11:57:33;;;;;;;;;;;;;;;25.94;42.50;101026.13;5098314;28;19923;-87
2023/07/25 11:59:59;;;;;;;;;;;;;;;26.27;43.89;101025.53;5098038;28;19916;-84
2023/07/25 12:02:26;;;;;;;;;;;;;;;26.56;42.48;101026.44;5080663;28;20348;-86
2023/07/25 12:04:51;;;;;;;;;;;;;;;26.40;40.50;101035.34;5098108;28;19920;-89
2023/07/25 12:07:16;;;;;;;;;;;;;;;26.18;41.23;101038.69;5098894;28;19923;-84
2023/07/25 12:09:49;;;;;;;;;;;;;;;25.96;41.57;101034.88;5099214;28;20004;-83
2023/07/25 12:12:14;;;;;;;;;;;;;;;24.71;43.48;101043.66;5098580;28;19916;-87
2023/07/25 12:14:41;;;;;;;;;;;;;;;24.68;46.03;101037.81;5098523;28;19927;-83
2023/07/25 12:17:06;;;;;;;;;;;;;;;24.92;44.19;101039.59;5097318;28;20383;-77
2023/07/25 12:19:32;;;;;;;;;;;;;;;24.25;45.06;101039.53;5096432;28;19986;-77
2023/07/25 12:22:04;;;;;;;;;;;;;;;24.14;47.77;101048.41;5096172;28;19985;-77
2023/07/25 12:24:38;;;;;;;;;;;;;;;24.47;45.75;101046.19;5096654;28;19920;-79